New Florence, MO

11:03 AM CST on November 22, 2014 (GMT -0600)
Columbia Regional | Change Station
CLOSE
Current Station
Airport
Location: Columbia,
Elevation: 899 ft
Nearby Weather Stations

Elev 899 ft 38.82 °N, 92.22 °W | Updated 9 minutes ago

Overcast
Overcast
58 °F
Feels Like 58 °F
N
13
Wind Variable Wind from SSW

Today
High -- | Low -- °F
--% Chance of Precip.
Yesterday
High -- | Low -- °F
Precip. -- in
6:56 AM 4:47 PM
New Moon, 0% visible
Pressure 30.01 in
Visibility 10.0 miles
Clouds Mostly Cloudy 1900 ft
Mostly Cloudy 2400 ft
Overcast 3000 ft
Dew Point 49 °F
Humidity 72%
Rainfall 0.00 in
Snow Depth Not available.
UV 1 out of 12
Pollen 1.90 out of 12
Air Quality Not available.
Flu Activity Not available.
METAR KCOU 221654Z 20011KT 10SM BKN019 BKN024 OVC030 14/09 A3001 RMK AO2 SLP163 T01440094

More Conditions Fewer Conditions

Pressure 30.01 in
Visibility 10.0 miles
Clouds Mostly Cloudy 1900 ft
Mostly Cloudy 2400 ft
Overcast 3000 ft
Dew Point 49 °F
Humidity 72%
Rainfall 0.00 in
Snow Depth Not available.
UV 1 out of 12
Pollen 1.90 out of 12
Air Quality Not available.
Flu Activity Not available.
METAR KCOU 221654Z 20011KT 10SM BKN019 BKN024 OVC030 14/09 A3001 RMK AO2 SLP163 T01440094

More Conditions Fewer Conditions

10-Day Weather Forecast

Almanac

Astronomy

Nov. 22, 2014 Rise Set
Actual Time
Civil Twilight
Nautical Twilight
Astronomical Twilight
Moon
Length of Visible Light
Length of Day
Tomorrow will be .
, % of the Moon is Illuminated

Today's Extremes

State Highs State Lows

Community

WunderPhotos

Upload Photos

1,772,860 photos uploaded!

WunderBlogs® & News

Nearby

Air Quality

  Air Quality AQ Index Pollutant
Not available.

Snow Depth

Station Depth Elevation

Earthquake Activity

City Distance Mag. Time & Date
Minimum magnitude displayed is 2.5.

Coastal Water Temperatures

Place Temperature

Nearby Weather Stations